Time;durP1;ratioP1;P1;durP2;ratioP2;P2;SDS_P1;SDS_P2;PMS_P1;PMS_P2;Temp;Humidity;BMP_temperature;BMP_pressure;BME280_temperature;BME280_humidity;BME280_pressure;Samples;Min_cycle;Max_cycle;Signal;HPM_P1;HPM_P2
2021/09/21 00:01:54;;;;;;;;;;;;;;;6.13;82.78;99814.41;5012797;28;19922;-75
2021/09/21 00:04:26;;;;;;;;;;;;;;;6.08;83.45;99811.78;5012509;28;20214;-75
2021/09/21 00:06:53;;;;;;;;;;;;;;;6.10;83.92;99810.09;5012200;28;20396;-76
2021/09/21 00:09:18;;;;;;;;;;;;;;;6.13;84.01;99812.72;5046252;28;20568;-75
2021/09/21 00:11:44;;;;;;;;;;;;;;;6.06;83.60;99808.31;5031286;28;20518;-76
2021/09/21 00:14:09;;;;;;;;;;;;;;;6.06;83.47;99799.72;5058814;28;19937;-76
2021/09/21 00:16:35;;;;;;;;;;;;;;;6.14;84.10;99796.34;5033150;28;19933;-76
2021/09/21 00:19:00;;;;;;;;;;;;;;;6.18;83.66;99784.31;5005501;28;19921;-75
2021/09/21 00:21:26;;;;;;;;;;;;;;;6.13;83.79;99789.47;5013366;28;19921;-73
2021/09/21 00:23:51;;;;;;;;;;;;;;;6.11;83.25;99792.84;5046500;28;19922;-76
2021/09/21 00:26:17;;;;;;;;;;;;;;;6.00;83.33;99790.16;5025891;28;19921;-76
2021/09/21 00:28:43;;;;;;;;;;;;;;;6.08;83.77;99778.19;5027295;28;20098;-78
2021/09/21 00:31:10;;;;;;;;;;;;;;;6.13;83.83;99780.81;5038537;28;19933;-75
2021/09/21 00:33:55;;;;;;;;;;;;;;;6.18;83.90;99781.72;5007430;28;19932;-77
2021/09/21 00:36:20;;;;;;;;;;;;;;;6.14;83.79;99785.13;5010686;28;19925;-78
2021/09/21 00:38:46;;;;;;;;;;;;;;;6.14;83.82;99778.28;5010509;28;19932;-76
2021/09/21 00:41:12;;;;;;;;;;;;;;;6.15;83.27;99773.94;5011795;28;19928;-77
2021/09/21 00:43:37;;;;;;;;;;;;;;;6.15;84.11;99771.38;5035924;28;20018;-75
2021/09/21 00:46:03;;;;;;;;;;;;;;;6.11;83.83;99774.78;5003431;28;19964;-77
2021/09/21 00:48:29;;;;;;;;;;;;;;;6.09;83.28;99785.09;5018627;28;20022;-76
2021/09/21 00:50:54;;;;;;;;;;;;;;;6.13;84.25;99773.94;5011259;28;20083;-77
2021/09/21 00:53:20;;;;;;;;;;;;;;;6.17;83.99;99772.25;5013141;28;19921;-77
2021/09/21 00:55:46;;;;;;;;;;;;;;;6.19;83.69;99767.97;5032393;28;19926;-76
2021/09/21 00:58:12;;;;;;;;;;;;;;;6.22;84.10;99768.00;5014846;28;19928;-76
2021/09/21 01:00:37;;;;;;;;;;;;;;;6.26;83.91;99776.63;5010494;28;19921;-76
2021/09/21 01:03:03;;;;;;;;;;;;;;;6.28;83.89;99762.00;5026912;28;20027;-76
2021/09/21 01:05:29;;;;;;;;;;;;;;;6.20;83.46;99772.28;5030401;28;19974;-75
2021/09/21 01:07:55;;;;;;;;;;;;;;;6.25;83.95;99774.91;5009164;28;19928;-78
2021/09/21 01:10:24;;;;;;;;;;;;;;;6.33;84.37;99768.94;5018721;28;19921;-76
2021/09/21 01:12:51;;;;;;;;;;;;;;;6.30;83.62;99768.06;5015298;28;19921;-75
2021/09/21 01:15:17;;;;;;;;;;;;;;;6.27;83.43;99763.75;5008025;28;19936;-76
2021/09/21 01:17:43;;;;;;;;;;;;;;;6.30;83.88;99763.72;5010961;28;19975;-76
2021/09/21 01:20:09;;;;;;;;;;;;;;;6.42;84.07;99764.69;5020501;28;19922;-76
2021/09/21 01:22:35;;;;;;;;;;;;;;;6.43;83.47;99762.09;5009517;28;20567;-76
2021/09/21 01:25:01;;;;;;;;;;;;;;;6.38;83.77;99773.28;5044168;28;19953;-75
2021/09/21 01:27:28;;;;;;;;;;;;;;;6.38;83.59;99760.34;5040607;28;19929;-76
2021/09/21 01:29:53;;;;;;;;;;;;;;;6.43;84.26;99769.88;5040040;28;19929;-78
2021/09/21 01:32:21;;;;;;;;;;;;;;;6.56;84.42;99757.03;5019673;28;20312;-77
2021/09/21 01:34:47;;;;;;;;;;;;;;;6.57;83.82;99759.63;5006882;28;20101;-77
2021/09/21 01:37:13;;;;;;;;;;;;;;;6.57;84.02;99762.22;5043349;28;20960;-76
2021/09/21 01:39:42;;;;;;;;;;;;;;;6.58;83.16;99763.94;5014565;28;20392;-76
2021/09/21 01:42:09;;;;;;;;;;;;;;;6.56;83.68;99755.31;5020384;28;19943;-76
2021/09/21 01:44:35;;;;;;;;;;;;;;;6.56;83.81;99755.31;5042183;28;20008;-76
2021/09/21 01:47:04;;;;;;;;;;;;;;;6.52;83.35;99756.13;5009269;28;20012;-77
2021/09/21 01:49:36;;;;;;;;;;;;;;;6.54;83.57;99753.59;5042112;28;19921;-77
2021/09/21 01:52:12;;;;;;;;;;;;;;;6.56;83.31;99757.03;5009824;28;19921;-77
2021/09/21 01:59:47;;;;;;;;;;;;;;;6.56;83.44;99744.97;5039264;28;20320;-76
2021/09/21 02:02:12;;;;;;;;;;;;;;;6.53;82.84;99737.19;5031191;28;19929;-76
2021/09/21 02:04:38;;;;;;;;;;;;;;;6.58;83.86;99742.41;5054825;28;19909;-76
2021/09/21 02:07:04;;;;;;;;;;;;;;;6.67;83.29;99732.09;5043545;28;19987;-76
2021/09/21 02:09:29;;;;;;;;;;;;;;;6.62;83.09;99733.81;5008724;28;19948;-77
2021/09/21 02:11:55;;;;;;;;;;;;;;;6.56;83.25;99738.94;5040242;28;20300;-76
2021/09/21 02:14:22;;;;;;;;;;;;;;;6.54;83.35;99730.31;5045057;28;19965;-76
2021/09/21 02:16:48;;;;;;;;;;;;;;;6.54;83.57;99731.16;5018397;28;19930;-76
2021/09/21 02:19:13;;;;;;;;;;;;;;;6.65;83.80;99735.56;5068246;28;19920;-77
2021/09/21 02:21:39;;;;;;;;;;;;;;;6.67;83.12;99731.25;5034475;28;19948;-76
2021/09/21 02:24:05;;;;;;;;;;;;;;;6.68;83.47;99722.66;5053641;28;19930;-76
2021/09/21 02:26:30;;;;;;;;;;;;;;;6.72;83.29;99721.81;5041573;28;19932;-75
2021/09/21 02:28:56;;;;;;;;;;;;;;;6.69;83.47;99732.13;5007289;28;19925;-75
2021/09/21 02:31:22;;;;;;;;;;;;;;;6.64;83.28;99729.50;5040456;28;19927;-78
2021/09/21 02:33:48;;;;;;;;;;;;;;;6.66;82.97;99729.53;5042602;28;19921;-75
2021/09/21 02:36:14;;;;;;;;;;;;;;;6.69;83.27;99726.97;5026318;28;19936;-77
2021/09/21 02:38:40;;;;;;;;;;;;;;;6.59;82.98;99729.47;5011201;28;19967;-76
2021/09/21 02:41:05;;;;;;;;;;;;;;;6.48;82.54;99731.16;5008825;28;19925;-76
2021/09/21 02:43:31;;;;;;;;;;;;;;;6.44;83.22;99725.06;4994431;28;19952;-77
2021/09/21 02:46:01;;;;;;;;;;;;;;;6.40;83.27;99719.88;5012358;28;19921;-78
2021/09/21 02:48:31;;;;;;;;;;;;;;;6.36;83.46;99723.28;5014110;28;19932;-76
2021/09/21 02:50:58;;;;;;;;;;;;;;;6.35;83.31;99729.31;5041747;28;19988;-75
2021/09/21 02:53:23;;;;;;;;;;;;;;;6.40;83.60;99725.03;5012497;28;20016;-76
2021/09/21 02:55:49;;;;;;;;;;;;;;;6.40;83.53;99718.13;5018071;28;19952;-76
2021/09/21 02:58:14;;;;;;;;;;;;;;;6.36;83.84;99713.84;5008839;28;19921;-75
2021/09/21 03:00:40;;;;;;;;;;;;;;;6.36;83.34;99712.94;5011503;28;19921;-75
2021/09/21 03:03:07;;;;;;;;;;;;;;;6.34;83.16;99712.94;5039590;28;19921;-76
2021/09/21 03:05:38;;;;;;;;;;;;;;;6.36;83.67;99712.94;5006695;28;19921;-77
2021/09/21 03:13:38;;;;;;;;;;;;;;;6.34;83.98;99712.94;5007281;28;20300;-77
2021/09/21 03:18:48;;;;;;;;;;;;;;;6.41;83.64;99712.13;5026130;28;19928;-77
2021/09/21 03:21:14;;;;;;;;;;;;;;;6.41;83.92;99700.94;5007489;28;20527;-78
2021/09/21 03:23:40;;;;;;;;;;;;;;;6.51;84.01;99707.03;5007668;28;19921;-78
2021/09/21 03:26:05;;;;;;;;;;;;;;;6.48;83.57;99702.72;5018130;28;19928;-76
2021/09/21 03:28:31;;;;;;;;;;;;;;;6.44;83.52;99690.63;5023577;28;20350;-78
2021/09/21 03:30:56;;;;;;;;;;;;;;;6.51;84.10;99694.94;5027075;28;19925;-76
2021/09/21 03:33:22;;;;;;;;;;;;;;;6.58;83.84;99690.69;5039919;28;19925;-77
2021/09/21 03:35:47;;;;;;;;;;;;;;;6.63;84.18;99701.91;5004489;28;19930;-76
2021/09/21 03:38:13;;;;;;;;;;;;;;;6.68;83.97;99704.53;5025222;28;19925;-77
2021/09/21 03:40:42;;;;;;;;;;;;;;;6.59;83.42;99701.03;5041449;28;19925;-77
2021/09/21 03:43:08;;;;;;;;;;;;;;;6.56;83.71;99697.59;5005975;28;19925;-77
2021/09/21 03:45:34;;;;;;;;;;;;;;;6.59;84.21;99695.88;5040136;28;20019;-77
2021/09/21 03:47:59;;;;;;;;;;;;;;;6.65;83.79;99695.03;5010445;28;19975;-76
2021/09/21 03:50:25;;;;;;;;;;;;;;;6.66;83.50;99691.59;5012688;28;19928;-77
2021/09/21 03:52:51;;;;;;;;;;;;;;;6.69;84.15;99695.94;5031035;28;19921;-76
2021/09/21 03:55:16;;;;;;;;;;;;;;;6.72;84.09;99696.81;5042258;28;20398;-77
2021/09/21 03:57:42;;;;;;;;;;;;;;;6.76;84.05;99700.25;5012053;28;19928;-76
2021/09/21 04:00:08;;;;;;;;;;;;;;;6.72;83.67;99701.97;5034703;28;19925;-76
2021/09/21 04:02:37;;;;;;;;;;;;;;;6.74;83.60;99705.44;5011405;28;19925;-77
2021/09/21 04:05:03;;;;;;;;;;;;;;;6.79;84.12;99697.69;5012794;28;20031;-76
2021/09/21 04:07:29;;;;;;;;;;;;;;;6.78;83.46;99688.19;5034443;28;20057;-77
2021/09/21 04:09:55;;;;;;;;;;;;;;;6.78;83.52;99688.19;5022807;28;20308;-77
2021/09/21 04:12:20;;;;;;;;;;;;;;;6.80;83.66;99688.22;5017910;28;19921;-76
2021/09/21 04:14:46;;;;;;;;;;;;;;;6.77;83.58;99686.47;5017693;28;19933;-75
2021/09/21 04:17:12;;;;;;;;;;;;;;;6.82;83.92;99684.78;5052833;28;19922;-75
2021/09/21 04:19:37;;;;;;;;;;;;;;;6.82;83.89;99678.75;5004031;28;19926;-76
2021/09/21 04:22:03;;;;;;;;;;;;;;;6.86;83.48;99685.66;5021887;28;19928;-75
2021/09/21 04:24:28;;;;;;;;;;;;;;;6.84;83.83;99688.25;5024621;28;19976;-76
2021/09/21 04:26:54;;;;;;;;;;;;;;;6.80;83.49;99670.13;5037023;28;19952;-76
2021/09/21 04:29:20;;;;;;;;;;;;;;;6.80;83.48;99686.50;5039095;28;19928;-75
2021/09/21 04:31:48;;;;;;;;;;;;;;;6.87;83.89;99680.50;5052173;28;19971;-77
2021/09/21 04:34:14;;;;;;;;;;;;;;;6.91;83.86;99678.78;5035315;28;19936;-77
2021/09/21 04:36:40;;;;;;;;;;;;;;;6.91;83.55;99676.19;5019206;28;20296;-76
2021/09/21 04:39:06;;;;;;;;;;;;;;;6.93;83.71;99680.53;5005063;28;19974;-77
2021/09/21 04:41:32;;;;;;;;;;;;;;;7.00;83.55;99680.53;5049530;28;19925;-76
2021/09/21 04:43:59;;;;;;;;;;;;;;;7.02;83.78;99684.00;5015773;28;19921;-76
2021/09/21 04:46:24;;;;;;;;;;;;;;;7.02;83.55;99681.41;5024214;28;19921;-76
2021/09/21 04:48:50;;;;;;;;;;;;;;;7.03;83.30;99676.25;5034484;28;19921;-76
2021/09/21 04:51:16;;;;;;;;;;;;;;;7.01;83.20;99677.09;5018188;28;19921;-74
2021/09/21 04:53:41;;;;;;;;;;;;;;;7.00;83.16;99686.59;5023924;28;19968;-75
2021/09/21 04:56:07;;;;;;;;;;;;;;;6.99;83.42;99684.84;5048259;28;20976;-76
2021/09/21 04:58:32;;;;;;;;;;;;;;;7.01;83.52;99679.69;5016561;28;20373;-76
2021/09/21 05:00:58;;;;;;;;;;;;;;;6.98;82.90;99682.25;5045063;28;19922;-76
2021/09/21 05:03:24;;;;;;;;;;;;;;;6.97;83.65;99696.03;5003412;28;19928;-75
2021/09/21 05:05:49;;;;;;;;;;;;;;;6.92;83.08;99689.16;5050359;28;19927;-75
2021/09/21 05:08:15;;;;;;;;;;;;;;;7.04;84.04;99696.09;5020127;28;20262;-75
2021/09/21 05:10:41;;;;;;;;;;;;;;;7.05;83.50;99690.06;5016656;28;20311;-76
2021/09/21 05:13:06;;;;;;;;;;;;;;;7.06;83.75;99686.59;5015003;28;20028;-76
2021/09/21 05:15:32;;;;;;;;;;;;;;;7.11;83.74;99681.44;5015468;28;20035;-76
2021/09/21 05:17:58;;;;;;;;;;;;;;;7.18;83.40;99684.91;5017031;28;19974;-75
2021/09/21 05:20:24;;;;;;;;;;;;;;;7.15;83.47;99690.06;5035225;28;19920;-76
2021/09/21 05:22:53;;;;;;;;;;;;;;;7.12;83.27;99690.06;5014087;28;19928;-76
2021/09/21 05:25:20;;;;;;;;;;;;;;;7.12;83.44;99688.34;5017588;28;19921;-77
2021/09/21 05:27:45;;;;;;;;;;;;;;;7.09;83.39;99698.69;5028694;28;20020;-75
2021/09/21 05:30:11;;;;;;;;;;;;;;;7.11;83.74;99691.81;5014347;28;20011;-77
2021/09/21 05:32:37;;;;;;;;;;;;;;;7.10;83.35;99687.47;5013299;28;19925;-75
2021/09/21 05:35:03;;;;;;;;;;;;;;;7.17;83.74;99689.22;5041373;28;19972;-76
2021/09/21 05:37:30;;;;;;;;;;;;;;;7.20;83.47;99681.47;5010683;28;19955;-75
2021/09/21 05:39:56;;;;;;;;;;;;;;;7.26;82.94;99687.53;5016146;28;19922;-76
2021/09/21 05:42:21;;;;;;;;;;;;;;;7.21;83.32;99685.78;5037210;28;19929;-76
2021/09/21 05:44:47;;;;;;;;;;;;;;;7.26;83.33;99688.41;5009616;28;19971;-79
2021/09/21 05:47:12;;;;;;;;;;;;;;;7.28;83.65;99690.97;5016801;28;19974;-79
2021/09/21 05:49:39;;;;;;;;;;;;;;;7.39;83.35;99689.31;5007976;28;20379;-78
2021/09/21 05:52:05;;;;;;;;;;;;;;;7.43;83.93;99690.16;5009058;28;19926;-75
2021/09/21 05:54:31;;;;;;;;;;;;;;;7.48;83.50;99685.88;5035248;28;19925;-76
2021/09/21 05:56:57;;;;;;;;;;;;;;;7.40;82.69;99685.81;5023608;28;19937;-77
2021/09/21 05:59:22;;;;;;;;;;;;;;;7.33;83.01;99672.00;5015367;28;20398;-78
2021/09/21 06:01:48;;;;;;;;;;;;;;;7.34;83.29;99694.44;5006701;28;19925;-77
2021/09/21 06:04:13;;;;;;;;;;;;;;;7.37;83.29;99683.25;5039397;28;19971;-75
2021/09/21 06:06:39;;;;;;;;;;;;;;;7.32;82.91;99683.22;5009516;28;19929;-76
2021/09/21 06:09:04;;;;;;;;;;;;;;;7.35;83.42;99682.38;5006881;28;19948;-76
2021/09/21 06:11:34;;;;;;;;;;;;;;;7.37;83.61;99676.34;5040393;28;19947;-76
2021/09/21 06:14:03;;;;;;;;;;;;;;;7.42;83.71;99675.50;5041106;28;19967;-77
2021/09/21 06:16:29;;;;;;;;;;;;;;;7.47;83.49;99681.56;5007459;28;19936;-78
2021/09/21 06:18:55;;;;;;;;;;;;;;;7.48;83.43;99676.34;5023206;28;19921;-78
2021/09/21 06:21:21;;;;;;;;;;;;;;;7.48;83.06;99678.09;5008936;28;20426;-77
2021/09/21 06:23:46;;;;;;;;;;;;;;;7.41;83.10;99677.19;5008811;28;20076;-76
2021/09/21 06:26:13;;;;;;;;;;;;;;;7.43;82.88;99685.84;5041441;28;20027;-76
2021/09/21 06:28:39;;;;;;;;;;;;;;;7.43;83.39;99680.66;5039812;28;19925;-76
2021/09/21 06:31:05;;;;;;;;;;;;;;;7.46;82.80;99685.00;5017584;28;19956;-78
2021/09/21 06:33:30;;;;;;;;;;;;;;;7.50;83.28;99685.00;5053858;28;19933;-77
2021/09/21 06:35:56;;;;;;;;;;;;;;;7.50;82.99;99700.53;5022061;28;19968;-77
2021/09/21 06:38:21;;;;;;;;;;;;;;;7.43;82.50;99687.56;5024975;28;19964;-77
2021/09/21 06:40:47;;;;;;;;;;;;;;;7.48;83.55;99685.88;5006166;28;19926;-76
2021/09/21 06:43:12;;;;;;;;;;;;;;;7.49;82.72;99695.38;5008901;28;20383;-75
2021/09/21 06:45:38;;;;;;;;;;;;;;;7.52;83.19;99696.22;5007346;28;19929;-77
2021/09/21 06:48:07;;;;;;;;;;;;;;;7.49;82.67;99701.41;5016065;28;19969;-78
2021/09/21 06:50:33;;;;;;;;;;;;;;;7.47;82.87;99700.53;5029864;28;20003;-77
2021/09/21 06:52:58;;;;;;;;;;;;;;;7.43;82.57;99711.72;4997614;28;20278;-76
2021/09/21 06:55:24;;;;;;;;;;;;;;;7.48;82.93;99693.63;5002024;28;19925;-76
2021/09/21 06:57:53;;;;;;;;;;;;;;;7.52;83.28;99688.47;5010578;28;20032;-77
2021/09/21 07:00:25;;;;;;;;;;;;;;;7.51;82.59;99694.50;5039485;28;20092;-79
2021/09/21 07:02:54;;;;;;;;;;;;;;;7.57;83.13;99693.63;5042336;28;19922;-76
2021/09/21 07:05:24;;;;;;;;;;;;;;;7.64;82.85;99697.97;5028138;28;19929;-77
2021/09/21 07:07:55;;;;;;;;;;;;;;;7.59;82.43;99702.28;5042629;28;19929;-76
2021/09/21 07:10:24;;;;;;;;;;;;;;;7.65;83.17;99704.88;5009288;28;20012;-77
2021/09/21 07:13:10;;;;;;;;;;;;;;;7.75;83.16;99697.09;5039154;28;19921;-76
2021/09/21 07:15:36;;;;;;;;;;;;;;;7.82;83.19;99696.25;5015578;28;20065;-75
2021/09/21 07:18:18;;;;;;;;;;;;;;;7.89;82.96;99690.22;5006781;28;20040;-76
2021/09/21 07:20:47;;;;;;;;;;;;;;;7.86;82.37;99695.41;5034781;28;19928;-76
2021/09/21 07:23:15;;;;;;;;;;;;;;;7.89;82.98;99694.53;5007954;28;19921;-76
2021/09/21 07:25:41;;;;;;;;;;;;;;;7.88;82.34;99698.88;5021739;28;19928;-77
2021/09/21 07:28:07;;;;;;;;;;;;;;;7.83;82.51;99691.06;5013188;28;19925;-77
2021/09/21 07:30:33;;;;;;;;;;;;;;;7.88;82.76;99697.97;5043759;28;20316;-76
2021/09/21 07:32:59;;;;;;;;;;;;;;;7.81;82.13;99691.94;5015376;28;19972;-77
2021/09/21 07:35:25;;;;;;;;;;;;;;;7.84;82.59;99687.59;5024113;28;19934;-76
2021/09/21 07:37:51;;;;;;;;;;;;;;;7.85;82.53;99691.09;5009579;28;19945;-76
2021/09/21 07:40:34;;;;;;;;;;;;;;;;;;;;;
2021/09/21 07:43:06;;;;;;;;;;;;;;;7.88;82.40;99693.69;5026086;28;20424;-77
2021/09/21 07:45:32;;;;;;;;;;;;;;;7.86;82.37;99687.63;5044081;28;20038;-79
2021/09/21 07:48:07;;;;;;;;;;;;;;;7.87;82.29;99706.63;5009592;28;19925;-78
2021/09/21 07:50:33;;;;;;;;;;;;;;;7.87;82.71;99683.28;5010748;28;19922;-79
2021/09/21 07:53:19;;;;;;;;;;;;;;;8.02;83.16;99693.69;5042352;28;19993;-77
2021/09/21 07:55:50;;;;;;;;;;;;;;;8.12;82.87;99691.94;5028424;28;19930;-79
2021/09/21 07:58:17;;;;;;;;;;;;;;;8.16;82.34;99687.63;5013839;28;20552;-78
2021/09/21 08:00:46;;;;;;;;;;;;;;;8.09;81.85;99691.94;5015477;28;20668;-79
2021/09/21 08:03:25;;;;;;;;;;;;;;;8.03;81.91;99681.56;5029095;28;19932;-77
2021/09/21 08:06:26;;;;;;;;;;;;;;;8.04;81.63;99688.50;5015875;28;19933;-78
2021/09/21 08:08:52;;;;;;;;;;;;;;;7.89;81.36;99685.03;5015345;28;20486;-78
2021/09/21 08:11:38;;;;;;;;;;;;;;;7.94;82.04;99682.44;5017589;28;19925;-77
2021/09/21 08:14:14;;;;;;;;;;;;;;;8.03;81.71;99682.47;5048701;28;20020;-76
2021/09/21 08:16:54;;;;;;;;;;;;;;;8.01;81.67;99678.13;5033309;28;19925;-79
2021/09/21 08:19:20;;;;;;;;;;;;;;;7.99;82.24;99681.56;5015967;28;19932;-76
2021/09/21 08:21:46;;;;;;;;;;;;;;;8.00;81.81;99685.03;5029987;28;19921;-76
2021/09/21 08:24:14;;;;;;;;;;;;;;;8.09;82.58;99684.19;5022876;28;19921;-77
2021/09/21 08:26:39;;;;;;;;;;;;;;;8.18;82.48;99678.97;5013750;28;19921;-77
2021/09/21 08:29:06;;;;;;;;;;;;;;;8.20;82.05;99684.16;5011660;28;19929;-78
2021/09/21 08:31:31;;;;;;;;;;;;;;;8.13;81.72;99678.97;5017122;28;19921;-75
2021/09/21 08:34:00;;;;;;;;;;;;;;;8.24;82.70;99678.13;5016563;28;19983;-76
2021/09/21 08:36:26;;;;;;;;;;;;;;;8.21;81.45;99684.16;5025704;28;19929;-76
2021/09/21 08:38:55;;;;;;;;;;;;;;;8.21;81.84;99683.31;5050109;28;20023;-76
2021/09/21 08:41:20;;;;;;;;;;;;;;;8.24;82.20;99685.91;5009821;28;19921;-79
2021/09/21 08:43:50;;;;;;;;;;;;;;;8.21;81.38;99691.94;5042334;28;19921;-77
2021/09/21 08:46:17;;;;;;;;;;;;;;;8.10;81.05;99704.03;5009825;28;19944;-77
2021/09/21 08:48:43;;;;;;;;;;;;;;;8.09;82.13;99691.94;5040029;28;20380;-78
2021/09/21 08:51:16;;;;;;;;;;;;;;;8.07;81.36;99681.56;5007946;28;20013;-78
2021/09/21 08:53:46;;;;;;;;;;;;;;;8.07;81.95;99686.75;5030215;28;19944;-76
2021/09/21 08:56:11;;;;;;;;;;;;;;;8.04;81.42;99689.38;5009343;28;19926;-79
2021/09/21 08:58:56;;;;;;;;;;;;;;;8.03;81.48;99677.28;5008810;28;19922;-77
2021/09/21 09:01:24;;;;;;;;;;;;;;;8.08;81.13;99683.28;5025693;28;19971;-77
2021/09/21 09:03:56;;;;;;;;;;;;;;;8.07;81.65;99684.16;5008826;28;20081;-77
2021/09/21 09:06:23;;;;;;;;;;;;;;;8.12;81.58;99697.97;5041377;28;20399;-76
2021/09/21 09:08:49;;;;;;;;;;;;;;;8.12;82.00;99687.63;4999878;28;19921;-77
2021/09/21 09:11:19;;;;;;;;;;;;;;;8.18;81.83;99689.34;5011863;28;19921;-76
2021/09/21 09:13:49;;;;;;;;;;;;;;;8.19;81.40;99685.03;5024603;28;19925;-78
2021/09/21 09:16:16;;;;;;;;;;;;;;;8.20;81.27;99699.72;5041209;28;20052;-76
2021/09/21 09:18:43;;;;;;;;;;;;;;;8.23;81.97;99690.19;5010094;28;19928;-76
2021/09/21 09:21:10;;;;;;;;;;;;;;;8.23;81.58;99689.34;5009070;28;19928;-75
2021/09/21 09:23:50;;;;;;;;;;;;;;;8.26;81.45;99694.53;5040432;28;20549;-77
2021/09/21 09:26:20;;;;;;;;;;;;;;;8.19;81.14;99693.66;5014453;28;19925;-76
2021/09/21 09:28:46;;;;;;;;;;;;;;;8.15;81.42;99689.38;4999367;28;21095;-77
2021/09/21 09:31:21;;;;;;;;;;;;;;;8.10;81.51;99691.09;5012060;28;19972;-76
2021/09/21 09:33:47;;;;;;;;;;;;;;;8.15;80.94;99697.13;5039160;28;19933;-77
2021/09/21 09:36:19;;;;;;;;;;;;;;;8.15;81.09;99694.53;5012222;28;19925;-78
2021/09/21 09:38:45;;;;;;;;;;;;;;;8.12;81.07;99691.94;5008382;28;21360;-78
2021/09/21 09:41:12;;;;;;;;;;;;;;;8.09;81.11;99697.13;5031105;28;19921;-77
2021/09/21 09:43:42;;;;;;;;;;;;;;;8.19;81.80;99703.19;5024075;28;20384;-77
2021/09/21 09:46:15;;;;;;;;;;;;;;;8.21;81.25;99701.44;5012343;28;19983;-78
2021/09/21 09:48:41;;;;;;;;;;;;;;;8.23;81.22;99703.16;5015936;28;20866;-77
2021/09/21 09:51:06;;;;;;;;;;;;;;;8.31;81.09;99713.53;5024148;28;19921;-77
2021/09/21 09:53:32;;;;;;;;;;;;;;;8.25;80.74;99710.97;5008533;28;20055;-77
2021/09/21 09:55:58;;;;;;;;;;;;;;;8.21;81.22;99707.47;5010429;28;19937;-77
2021/09/21 09:58:24;;;;;;;;;;;;;;;8.20;80.79;99702.31;5025865;28;19922;-77
2021/09/21 10:00:54;;;;;;;;;;;;;;;8.26;81.05;99710.09;5030035;28;19921;-78
2021/09/21 10:03:20;;;;;;;;;;;;;;;8.22;80.81;99703.19;4995701;28;19967;-77
2021/09/21 10:05:46;;;;;;;;;;;;;;;8.17;80.55;99702.31;5011025;28;19925;-76
2021/09/21 10:08:12;;;;;;;;;;;;;;;8.23;81.05;99704.91;5016564;28;20285;-77
2021/09/21 10:10:40;;;;;;;;;;;;;;;8.17;80.64;99707.50;5030418;28;20041;-78
2021/09/21 10:13:10;;;;;;;;;;;;;;;8.20;81.06;99704.91;5022436;28;20421;-78
2021/09/21 10:15:36;;;;;;;;;;;;;;;8.18;81.21;99697.09;5049607;28;20020;-77
2021/09/21 10:18:01;;;;;;;;;;;;;;;8.28;81.14;99698.84;5048498;28;19933;-77
2021/09/21 10:20:35;;;;;;;;;;;;;;;8.21;80.39;99698.84;5017830;28;19920;-76
2021/09/21 10:23:01;;;;;;;;;;;;;;;8.17;81.24;99710.94;5019538;28;19932;-77
2021/09/21 10:25:27;;;;;;;;;;;;;;;8.18;79.93;99709.22;5016405;28;19927;-77
2021/09/21 10:27:53;;;;;;;;;;;;;;;8.14;81.11;99714.41;5023076;28;19914;-78
2021/09/21 10:30:21;;;;;;;;;;;;;;;8.08;80.98;99719.56;5034080;28;20007;-80
2021/09/21 10:32:48;;;;;;;;;;;;;;;8.07;80.68;99722.19;5023992;28;19972;-78
2021/09/21 10:35:15;;;;;;;;;;;;;;;8.05;80.64;99710.94;5031722;28;19941;-77
2021/09/21 10:37:41;;;;;;;;;;;;;;;8.12;81.13;99712.69;5027843;28;19913;-79
2021/09/21 10:40:07;;;;;;;;;;;;;;;8.14;80.90;99711.81;5065393;28;19917;-79
2021/09/21 10:42:33;;;;;;;;;;;;;;;8.24;81.54;99717.84;5029677;28;19913;-77
2021/09/21 10:45:01;;;;;;;;;;;;;;;8.25;80.67;99724.75;5012131;28;19932;-78
2021/09/21 10:47:28;;;;;;;;;;;;;;;8.23;80.83;99716.13;5024178;28;19922;-78
2021/09/21 10:50:07;;;;;;;;;;;;;;;8.29;81.09;99717.84;5030557;28;19921;-78
2021/09/21 10:52:32;;;;;;;;;;;;;;;8.35;80.56;99724.78;5026155;28;19945;-78
2021/09/21 10:55:04;;;;;;;;;;;;;;;8.34;80.72;99723.88;5046716;28;20518;-77
2021/09/21 10:57:40;;;;;;;;;;;;;;;8.28;80.73;99718.69;5015870;28;19922;-77
2021/09/21 11:00:08;;;;;;;;;;;;;;;8.23;80.76;99721.31;5014820;28;19928;-78
2021/09/21 11:02:36;;;;;;;;;;;;;;;8.33;80.32;99719.56;5010123;28;19921;-77
2021/09/21 11:05:03;;;;;;;;;;;;;;;8.30;80.28;99716.97;5014928;28;20471;-75
2021/09/21 11:07:29;;;;;;;;;;;;;;;8.28;80.31;99722.19;5010027;28;19921;-78
2021/09/21 11:09:55;;;;;;;;;;;;;;;8.31;80.58;99723.88;5040467;28;21649;-78
2021/09/21 11:12:23;;;;;;;;;;;;;;;8.32;80.21;99722.19;5042457;28;19952;-77
2021/09/21 11:14:51;;;;;;;;;;;;;;;8.36;80.55;99716.13;5013252;28;19968;-78
2021/09/21 11:17:20;;;;;;;;;;;;;;;8.34;80.70;99723.03;5035553;28;19925;-76
2021/09/21 11:19:49;;;;;;;;;;;;;;;8.42;80.92;99716.97;5044986;28;19921;-77
2021/09/21 11:22:16;;;;;;;;;;;;;;;8.44;80.25;99723.03;5012502;28;19972;-77
2021/09/21 11:24:42;;;;;;;;;;;;;;;8.40;80.41;99717.81;5013486;28;19921;-77
2021/09/21 11:27:08;;;;;;;;;;;;;;;8.36;80.07;99716.97;5016808;28;19936;-78
2021/09/21 11:29:38;;;;;;;;;;;;;;;8.44;80.35;99714.38;5013865;28;19922;-77
2021/09/21 11:32:14;;;;;;;;;;;;;;;8.51;79.99;99710.06;5029824;28;20034;-78
2021/09/21 11:34:40;;;;;;;;;;;;;;;8.49;80.55;99709.22;5032201;28;19936;-77
2021/09/21 11:37:07;;;;;;;;;;;;;;;8.41;79.93;99712.66;5047450;28;19929;-78
2021/09/21 11:39:33;;;;;;;;;;;;;;;8.38;79.75;99710.06;5012591;28;19964;-77
2021/09/21 11:41:58;;;;;;;;;;;;;;;8.41;80.58;99715.25;5012055;28;20397;-78
2021/09/21 11:44:25;;;;;;;;;;;;;;;8.38;79.63;99710.06;5028128;28;19921;-79
2021/09/21 11:46:57;;;;;;;;;;;;;;;8.41;80.26;99710.06;5042557;28;19929;-78
2021/09/21 11:49:23;;;;;;;;;;;;;;;8.36;79.60;99706.59;5011667;28;19921;-78
2021/09/21 11:51:49;;;;;;;;;;;;;;;8.34;79.77;99697.97;5041982;28;19944;-78
2021/09/21 11:54:15;;;;;;;;;;;;;;;8.28;79.74;99698.84;5009482;28;19929;-78
2021/09/21 11:56:42;;;;;;;;;;;;;;;8.44;80.21;99697.09;5040655;28;19929;-78
2021/09/21 11:59:07;;;;;;;;;;;;;;;8.50;80.29;99698.84;5019372;28;19922;-78
2021/09/21 12:01:33;;;;;;;;;;;;;;;8.60;80.17;99694.50;5009588;28;19921;-78
2021/09/21 12:03:58;;;;;;;;;;;;;;;8.66;79.95;99693.59;5024769;28;19921;-77
2021/09/21 12:06:33;;;;;;;;;;;;;;;8.70;79.51;99695.34;5037851;28;19928;-78
2021/09/21 12:09:00;;;;;;;;;;;;;;;8.70;80.03;99697.94;5010639;28;20377;-78
2021/09/21 12:11:27;;;;;;;;;;;;;;;8.68;79.14;99697.06;5045140;28;19921;-80
2021/09/21 12:13:52;;;;;;;;;;;;;;;8.76;79.97;99694.44;5006729;28;19924;-77
2021/09/21 12:16:19;;;;;;;;;;;;;;;8.74;79.42;99694.47;5048385;28;19959;-79
2021/09/21 12:18:45;;;;;;;;;;;;;;;8.82;79.65;99687.53;5047262;28;19921;-79
2021/09/21 12:21:13;;;;;;;;;;;;;;;8.83;78.98;99689.22;5023404;28;19928;-80
2021/09/21 12:23:40;;;;;;;;;;;;;;;8.92;79.53;99693.53;5013801;28;19956;-78
2021/09/21 12:26:06;;;;;;;;;;;;;;;8.85;78.97;99695.28;5000514;28;19929;-77
2021/09/21 12:28:33;;;;;;;;;;;;;;;8.87;78.92;99690.94;5049132;28;19921;-79
2021/09/21 12:31:05;;;;;;;;;;;;;;;8.81;78.10;99697.91;5018364;28;20395;-77
2021/09/21 12:33:35;;;;;;;;;;;;;;;8.78;78.98;99698.78;5015990;28;19929;-79
2021/09/21 12:36:01;;;;;;;;;;;;;;;8.73;78.16;99697.91;5017715;28;19925;-77
2021/09/21 12:38:26;;;;;;;;;;;;;;;8.77;79.30;99702.25;5032474;28;20361;-78
2021/09/21 12:40:55;;;;;;;;;;;;;;;8.69;78.58;99707.47;5020294;28;20340;-79
2021/09/21 12:43:32;;;;;;;;;;;;;;;8.58;78.00;99704.00;5050526;28;19921;-79
2021/09/21 12:46:02;;;;;;;;;;;;;;;8.49;78.73;99710.09;5060174;28;19994;-78
2021/09/21 12:48:32;;;;;;;;;;;;;;;8.43;78.66;99704.84;5058259;28;19932;-78
2021/09/21 12:50:58;;;;;;;;;;;;;;;8.37;78.26;99703.16;5033940;28;19925;-78
2021/09/21 12:53:25;;;;;;;;;;;;;;;8.40;78.80;99702.28;5037541;28;19980;-79
2021/09/21 12:55:55;;;;;;;;;;;;;;;8.35;78.46;99699.69;5018539;28;20031;-77
2021/09/21 12:58:25;;;;;;;;;;;;;;;8.42;79.13;99692.75;5011423;28;19927;-78
2021/09/21 13:00:53;;;;;;;;;;;;;;;8.41;78.89;99696.22;5050954;28;19975;-77
2021/09/21 13:03:21;;;;;;;;;;;;;;;8.43;79.02;99697.09;5005746;28;19921;-78
2021/09/21 13:05:47;;;;;;;;;;;;;;;8.43;78.50;99695.38;5033524;28;19921;-77
2021/09/21 13:08:13;;;;;;;;;;;;;;;8.42;78.65;99697.94;5033437;28;19928;-78
2021/09/21 13:10:39;;;;;;;;;;;;;;;8.41;78.38;99694.50;5016688;28;19922;-78
2021/09/21 13:13:05;;;;;;;;;;;;;;;8.49;78.85;99691.94;5053220;28;19932;-77